sensor_id;sensor_type;location;lat;lon;timestamp;pressure;altitude;pressure_sealevel;temperature;humidity
40794;BME280;26502;51.886;15.604;2023-02-20T00:03:38;101318.30;;;0.17;73.45
40794;BME280;26502;51.886;15.604;2023-02-20T00:08:47;101317.75;;;0.33;73.82
40794;BME280;26502;51.886;15.604;2023-02-20T00:13:53;101317.49;;;0.38;73.68
40794;BME280;26502;51.886;15.604;2023-02-20T00:18:59;101316.89;;;0.43;73.69
40794;BME280;26502;51.886;15.604;2023-02-20T00:24:06;101307.58;;;0.41;73.70
40794;BME280;26502;51.886;15.604;2023-02-20T00:29:15;101292.98;;;0.26;73.46
40794;BME280;26502;51.886;15.604;2023-02-20T00:34:20;101283.10;;;0.12;73.62
40794;BME280;26502;51.886;15.604;2023-02-20T00:39:27;101283.38;;;0.17;73.66
40794;BME280;26502;51.886;15.604;2023-02-20T00:44:33;101282.55;;;0.19;73.53
40794;BME280;26502;51.886;15.604;2023-02-20T00:49:39;101277.50;;;0.03;73.19
40794;BME280;26502;51.886;15.604;2023-02-20T00:54:52;101266.74;;;-0.02;73.46
40794;BME280;26502;51.886;15.604;2023-02-20T00:59:58;101264.65;;;-0.11;73.14
40794;BME280;26502;51.886;15.604;2023-02-20T01:05:06;101255.42;;;-0.26;73.35
40794;BME280;26502;51.886;15.604;2023-02-20T01:10:14;101252.56;;;-0.21;73.58
40794;BME280;26502;51.886;15.604;2023-02-20T01:15:21;101262.58;;;-0.42;73.31
40794;BME280;26502;51.886;15.604;2023-02-20T01:20:28;101271.17;;;-0.49;73.66
40794;BME280;26502;51.886;15.604;2023-02-20T01:25:34;101256.84;;;-0.57;73.50
40794;BME280;26502;51.886;15.604;2023-02-20T01:30:40;101245.82;;;-0.75;73.40
40794;BME280;26502;51.886;15.604;2023-02-20T01:35:47;101242.41;;;-0.86;73.41
40794;BME280;26502;51.886;15.604;2023-02-20T01:40:54;101236.44;;;-1.03;73.53
40794;BME280;26502;51.886;15.604;2023-02-20T01:46:42;101225.10;;;-1.10;73.73
40794;BME280;26502;51.886;15.604;2023-02-20T01:51:54;101214.32;;;-0.87;74.29
40794;BME280;26502;51.886;15.604;2023-02-20T01:57:04;101212.73;;;-0.80;73.92
40794;BME280;26502;51.886;15.604;2023-02-20T02:02:12;101222.77;;;-0.98;73.68
40794;BME280;26502;51.886;15.604;2023-02-20T02:07:19;101204.63;;;-1.14;73.79
40794;BME280;26502;51.886;15.604;2023-02-20T02:12:26;101187.31;;;-1.38;73.82
40794;BME280;26502;51.886;15.604;2023-02-20T02:24:02;101159.32;;;-1.58;74.50
40794;BME280;26502;51.886;15.604;2023-02-20T02:29:29;101149.98;;;-1.48;74.53
40794;BME280;26502;51.886;15.604;2023-02-20T02:40:27;101157.35;;;-1.16;74.31
40794;BME280;26502;51.886;15.604;2023-02-20T02:45:37;101154.52;;;-1.18;74.49
40794;BME280;26502;51.886;15.604;2023-02-20T02:50:47;101149.79;;;-1.18;74.27
40794;BME280;26502;51.886;15.604;2023-02-20T02:55:54;101131.64;;;-1.35;74.19
40794;BME280;26502;51.886;15.604;2023-02-20T03:01:02;101124.26;;;-1.37;74.69
40794;BME280;26502;51.886;15.604;2023-02-20T03:06:11;101129.05;;;-1.34;74.89
40794;BME280;26502;51.886;15.604;2023-02-20T03:11:22;101124.20;;;-1.17;75.16
40794;BME280;26502;51.886;15.604;2023-02-20T03:16:34;101114.98;;;-1.17;74.99
40794;BME280;26502;51.886;15.604;2023-02-20T03:21:45;101127.64;;;-0.95;75.39
40794;BME280;26502;51.886;15.604;2023-02-20T03:26:54;101130.37;;;-0.74;75.46
40794;BME280;26502;51.886;15.604;2023-02-20T03:32:05;101119.55;;;-0.74;75.10
40794;BME280;26502;51.886;15.604;2023-02-20T03:37:31;101105.48;;;-0.80;75.13
40794;BME280;26502;51.886;15.604;2023-02-20T03:43:00;101103.27;;;-0.69;75.33
40794;BME280;26502;51.886;15.604;2023-02-20T03:48:31;101099.31;;;-0.65;75.37
40794;BME280;26502;51.886;15.604;2023-02-20T03:53:40;101097.11;;;-0.63;75.33
40794;BME280;26502;51.886;15.604;2023-02-20T03:58:51;101097.18;;;-0.68;75.56
40794;BME280;26502;51.886;15.604;2023-02-20T04:03:59;101090.48;;;-0.63;75.74
40794;BME280;26502;51.886;15.604;2023-02-20T04:09:08;101091.17;;;-0.63;75.60
40794;BME280;26502;51.886;15.604;2023-02-20T04:14:19;101088.20;;;-0.72;75.56
40794;BME280;26502;51.886;15.604;2023-02-20T04:19:28;101082.67;;;-0.78;75.79
40794;BME280;26502;51.886;15.604;2023-02-20T04:24:39;101074.67;;;-0.77;75.88
40794;BME280;26502;51.886;15.604;2023-02-20T04:29:48;101065.02;;;-0.80;76.10
40794;BME280;26502;51.886;15.604;2023-02-20T04:34:54;101068.48;;;-0.72;76.35
40794;BME280;26502;51.886;15.604;2023-02-20T04:40:02;101060.52;;;-0.61;76.47
40794;BME280;26502;51.886;15.604;2023-02-20T04:45:09;101058.95;;;-0.52;76.56
40794;BME280;26502;51.886;15.604;2023-02-20T04:50:21;101058.58;;;-0.43;76.80
40794;BME280;26502;51.886;15.604;2023-02-20T04:55:29;101038.14;;;-0.35;76.83
40794;BME280;26502;51.886;15.604;2023-02-20T05:00:38;101040.66;;;-0.30;77.11
40794;BME280;26502;51.886;15.604;2023-02-20T05:05:44;101025.80;;;-0.21;77.16
40794;BME280;26502;51.886;15.604;2023-02-20T05:10:51;101010.23;;;-0.13;77.34
40794;BME280;26502;51.886;15.604;2023-02-20T05:15:58;101004.98;;;-0.03;77.48
40794;BME280;26502;51.886;15.604;2023-02-20T05:21:04;101000.39;;;0.05;77.51
40794;BME280;26502;51.886;15.604;2023-02-20T05:26:28;101005.46;;;0.17;77.68
40794;BME280;26502;51.886;15.604;2023-02-20T05:31:34;101000.94;;;0.29;77.62
40794;BME280;26502;51.886;15.604;2023-02-20T05:36:40;100986.10;;;0.42;77.80
40794;BME280;26502;51.886;15.604;2023-02-20T05:41:47;100973.27;;;0.49;77.91
40794;BME280;26502;51.886;15.604;2023-02-20T05:46:53;100963.63;;;0.60;77.98
40794;BME280;26502;51.886;15.604;2023-02-20T05:52:00;100952.52;;;0.66;77.90
40794;BME280;26502;51.886;15.604;2023-02-20T05:57:06;100948.23;;;0.73;77.94
40794;BME280;26502;51.886;15.604;2023-02-20T06:02:13;100939.20;;;0.79;78.14
40794;BME280;26502;51.886;15.604;2023-02-20T06:07:19;100937.02;;;0.87;78.36
40794;BME280;26502;51.886;15.604;2023-02-20T06:12:26;100929.58;;;0.95;78.38
40794;BME280;26502;51.886;15.604;2023-02-20T06:17:33;100921.98;;;1.03;78.28
40794;BME280;26502;51.886;15.604;2023-02-20T06:22:39;100909.10;;;1.10;78.21
40794;BME280;26502;51.886;15.604;2023-02-20T06:27:46;100894.08;;;1.12;77.96
40794;BME280;26502;51.886;15.604;2023-02-20T06:32:52;100880.63;;;1.14;78.19
40794;BME280;26502;51.886;15.604;2023-02-20T06:37:58;100872.27;;;1.19;78.13
40794;BME280;26502;51.886;15.604;2023-02-20T06:43:05;100874.63;;;1.27;78.70
40794;BME280;26502;51.886;15.604;2023-02-20T06:48:11;100870.85;;;1.37;78.49
40794;BME280;26502;51.886;15.604;2023-02-20T06:53:19;100870.80;;;1.51;79.02
40794;BME280;26502;51.886;15.604;2023-02-20T06:58:26;100869.34;;;1.67;78.97
40794;BME280;26502;51.886;15.604;2023-02-20T07:03:32;100859.83;;;1.84;79.12
40794;BME280;26502;51.886;15.604;2023-02-20T07:08:38;100844.16;;;2.03;78.94
40794;BME280;26502;51.886;15.604;2023-02-20T07:13:44;100823.23;;;2.23;78.95
40794;BME280;26502;51.886;15.604;2023-02-20T07:18:51;100819.11;;;2.46;79.45
40794;BME280;26502;51.886;15.604;2023-02-20T07:23:57;100806.38;;;2.72;79.72
40794;BME280;26502;51.886;15.604;2023-02-20T07:29:04;100798.86;;;2.97;79.43
40794;BME280;26502;51.886;15.604;2023-02-20T07:34:11;100794.13;;;3.17;79.72
40794;BME280;26502;51.886;15.604;2023-02-20T07:39:16;100798.68;;;3.39;79.76
40794;BME280;26502;51.886;15.604;2023-02-20T07:44:23;100780.55;;;3.62;79.88
40794;BME280;26502;51.886;15.604;2023-02-20T07:49:29;100786.31;;;3.75;79.97
40794;BME280;26502;51.886;15.604;2023-02-20T07:54:35;100769.23;;;3.89;79.99
40794;BME280;26502;51.886;15.604;2023-02-20T07:59:42;100748.41;;;4.08;80.57
40794;BME280;26502;51.886;15.604;2023-02-20T08:04:48;100744.80;;;4.26;80.40
40794;BME280;26502;51.886;15.604;2023-02-20T08:09:55;100753.52;;;4.39;80.36
40794;BME280;26502;51.886;15.604;2023-02-20T08:15:01;100770.88;;;4.51;80.35
40794;BME280;26502;51.886;15.604;2023-02-20T08:20:10;100764.52;;;4.55;80.18
40794;BME280;26502;51.886;15.604;2023-02-20T08:25:17;100739.11;;;4.64;80.28
40794;BME280;26502;51.886;15.604;2023-02-20T08:30:26;100731.16;;;4.70;80.28
40794;BME280;26502;51.886;15.604;2023-02-20T08:35:33;100727.95;;;4.77;80.68
40794;BME280;26502;51.886;15.604;2023-02-20T08:40:39;100729.27;;;4.85;80.64
40794;BME280;26502;51.886;15.604;2023-02-20T08:45:45;100708.27;;;4.94;80.71
40794;BME280;26502;51.886;15.604;2023-02-20T08:50:52;100687.58;;;5.05;80.72
40794;BME280;26502;51.886;15.604;2023-02-20T08:55:58;100683.06;;;5.17;80.61
40794;BME280;26502;51.886;15.604;2023-02-20T09:01:05;100678.48;;;5.32;80.18
40794;BME280;26502;51.886;15.604;2023-02-20T09:06:11;100657.52;;;5.50;80.18
40794;BME280;26502;51.886;15.604;2023-02-20T09:11:18;100630.36;;;5.66;79.83
40794;BME280;26502;51.886;15.604;2023-02-20T09:16:25;100630.47;;;5.84;79.36
40794;BME280;26502;51.886;15.604;2023-02-20T09:21:32;100615.39;;;6.06;78.81
40794;BME280;26502;51.886;15.604;2023-02-20T09:26:41;100598.21;;;6.22;77.91
40794;BME280;26502;51.886;15.604;2023-02-20T09:31:47;100583.91;;;6.34;77.17
40794;BME280;26502;51.886;15.604;2023-02-20T09:36:54;100551.63;;;6.45;77.16
40794;BME280;26502;51.886;15.604;2023-02-20T09:42:10;100547.01;;;6.57;76.99
40794;BME280;26502;51.886;15.604;2023-02-20T09:47:29;100545.51;;;6.71;76.52
40794;BME280;26502;51.886;15.604;2023-02-20T09:52:38;100525.47;;;6.85;76.08
40794;BME280;26502;51.886;15.604;2023-02-20T09:57:48;100517.96;;;6.99;75.31
40794;BME280;26502;51.886;15.604;2023-02-20T10:03:09;100510.13;;;7.11;74.16
40794;BME280;26502;51.886;15.604;2023-02-20T10:08:20;100488.45;;;7.25;73.08
40794;BME280;26502;51.886;15.604;2023-02-20T10:13:40;100487.81;;;7.38;72.33
40794;BME280;26502;51.886;15.604;2023-02-20T10:18:56;100477.64;;;7.50;70.86
40794;BME280;26502;51.886;15.604;2023-02-20T10:24:17;100461.66;;;7.61;70.47
40794;BME280;26502;51.886;15.604;2023-02-20T10:29:30;100456.08;;;7.66;69.52
40794;BME280;26502;51.886;15.604;2023-02-20T10:34:41;100431.39;;;7.70;68.74
40794;BME280;26502;51.886;15.604;2023-02-20T10:39:51;100420.38;;;7.72;68.06
40794;BME280;26502;51.886;15.604;2023-02-20T10:45:07;100413.67;;;7.79;67.38
40794;BME280;26502;51.886;15.604;2023-02-20T10:50:18;100398.29;;;7.86;66.67
40794;BME280;26502;51.886;15.604;2023-02-20T10:55:29;100383.11;;;7.93;66.09
40794;BME280;26502;51.886;15.604;2023-02-20T11:00:41;100371.31;;;7.97;65.85
40794;BME280;26502;51.886;15.604;2023-02-20T11:05:53;100347.30;;;8.02;65.40
40794;BME280;26502;51.886;15.604;2023-02-20T11:11:04;100338.70;;;8.06;65.15
40794;BME280;26502;51.886;15.604;2023-02-20T11:16:25;100322.77;;;8.13;64.71
40794;BME280;26502;51.886;15.604;2023-02-20T11:21:39;100321.55;;;8.25;64.25
40794;BME280;26502;51.886;15.604;2023-02-20T11:26:46;100315.42;;;8.54;64.52
40794;BME280;26502;51.886;15.604;2023-02-20T11:31:54;100290.87;;;8.70;63.54
40794;BME280;26502;51.886;15.604;2023-02-20T11:37:09;100295.16;;;8.75;63.11
40794;BME280;26502;51.886;15.604;2023-02-20T11:42:16;100292.95;;;8.83;62.53
40794;BME280;26502;51.886;15.604;2023-02-20T11:47:26;100286.23;;;8.88;62.42
40794;BME280;26502;51.886;15.604;2023-02-20T11:52:33;100272.05;;;8.95;62.37
40794;BME280;26502;51.886;15.604;2023-02-20T11:57:42;100272.52;;;9.02;61.63
40794;BME280;26502;51.886;15.604;2023-02-20T12:02:48;100259.69;;;9.10;62.01
40794;BME280;26502;51.886;15.604;2023-02-20T12:08:00;100255.45;;;9.20;61.72
40794;BME280;26502;51.886;15.604;2023-02-20T12:13:08;100236.90;;;9.29;61.26
40794;BME280;26502;51.886;15.604;2023-02-20T12:18:27;100229.70;;;9.37;61.18
40794;BME280;26502;51.886;15.604;2023-02-20T12:23:42;100232.14;;;9.44;61.13
40794;BME280;26502;51.886;15.604;2023-02-20T12:28:59;100246.42;;;9.47;61.14
40794;BME280;26502;51.886;15.604;2023-02-20T12:34:32;100254.02;;;9.52;61.17
40794;BME280;26502;51.886;15.604;2023-02-20T12:39:46;100238.70;;;9.59;61.06
40794;BME280;26502;51.886;15.604;2023-02-20T12:45:24;100233.16;;;9.65;61.14
40794;BME280;26502;51.886;15.604;2023-02-20T12:50:41;100222.84;;;9.71;60.61
40794;BME280;26502;51.886;15.604;2023-02-20T12:56:03;100211.70;;;9.80;60.64
40794;BME280;26502;51.886;15.604;2023-02-20T13:01:13;100216.70;;;9.84;60.53
40794;BME280;26502;51.886;15.604;2023-02-20T13:06:28;100214.69;;;9.85;60.04
40794;BME280;26502;51.886;15.604;2023-02-20T13:11:39;100215.32;;;9.73;60.63
40794;BME280;26502;51.886;15.604;2023-02-20T13:16:52;100190.63;;;9.64;60.75
40794;BME280;26502;51.886;15.604;2023-02-20T13:22:01;100203.73;;;9.60;60.98
40794;BME280;26502;51.886;15.604;2023-02-20T13:27:09;100186.27;;;9.57;60.80
40794;BME280;26502;51.886;15.604;2023-02-20T13:32:32;100183.95;;;9.53;61.41
40794;BME280;26502;51.886;15.604;2023-02-20T13:37:56;100171.59;;;9.52;61.62
40794;BME280;26502;51.886;15.604;2023-02-20T13:43:25;100154.46;;;9.55;61.80
40794;BME280;26502;51.886;15.604;2023-02-20T13:48:45;100140.81;;;9.65;61.70
40794;BME280;26502;51.886;15.604;2023-02-20T13:53:56;100134.36;;;9.71;61.64
40794;BME280;26502;51.886;15.604;2023-02-20T13:59:11;100130.07;;;9.77;61.86
40794;BME280;26502;51.886;15.604;2023-02-20T14:04:21;100136.91;;;9.83;61.58
40794;BME280;26502;51.886;15.604;2023-02-20T14:09:29;100146.81;;;9.84;61.92
40794;BME280;26502;51.886;15.604;2023-02-20T14:14:40;100136.80;;;9.86;62.07
40794;BME280;26502;51.886;15.604;2023-02-20T14:19:52;100139.10;;;9.91;62.26
40794;BME280;26502;51.886;15.604;2023-02-20T14:25:24;100142.02;;;9.94;62.38
40794;BME280;26502;51.886;15.604;2023-02-20T14:30:33;100148.77;;;9.98;62.74
40794;BME280;26502;51.886;15.604;2023-02-20T14:35:59;100149.73;;;9.96;62.87
40794;BME280;26502;51.886;15.604;2023-02-20T14:41:16;100150.92;;;9.97;62.91
40794;BME280;26502;51.886;15.604;2023-02-20T14:46:25;100160.60;;;9.95;63.20
40794;BME280;26502;51.886;15.604;2023-02-20T14:51:32;100166.59;;;9.87;63.60
40794;BME280;26502;51.886;15.604;2023-02-20T14:56:39;100158.85;;;9.84;63.84
40794;BME280;26502;51.886;15.604;2023-02-20T15:01:45;100173.04;;;9.80;64.14
40794;BME280;26502;51.886;15.604;2023-02-20T15:06:52;100188.14;;;9.75;64.60
40794;BME280;26502;51.886;15.604;2023-02-20T15:12:00;100194.77;;;9.67;65.17
40794;BME280;26502;51.886;15.604;2023-02-20T15:17:22;100205.62;;;9.62;65.54
40794;BME280;26502;51.886;15.604;2023-02-20T15:22:31;100202.12;;;9.56;66.08
40794;BME280;26502;51.886;15.604;2023-02-20T15:27:38;100206.27;;;9.49;66.37
40794;BME280;26502;51.886;15.604;2023-02-20T15:32:51;100206.48;;;9.42;66.85
40794;BME280;26502;51.886;15.604;2023-02-20T15:38:01;100216.73;;;9.38;67.62
40794;BME280;26502;51.886;15.604;2023-02-20T15:43:13;100222.23;;;9.28;67.71
40794;BME280;26502;51.886;15.604;2023-02-20T15:48:20;100218.05;;;9.26;68.14
40794;BME280;26502;51.886;15.604;2023-02-20T15:53:29;100221.46;;;9.19;69.23
40794;BME280;26502;51.886;15.604;2023-02-20T15:58:38;100225.21;;;9.08;69.71
40794;BME280;26502;51.886;15.604;2023-02-20T16:03:47;100229.44;;;8.98;70.34
40794;BME280;26502;51.886;15.604;2023-02-20T16:08:53;100229.10;;;8.91;70.40
40794;BME280;26502;51.886;15.604;2023-02-20T16:14:01;100231.64;;;8.96;70.98
40794;BME280;26502;51.886;15.604;2023-02-20T16:19:12;100231.79;;;8.96;70.95
40794;BME280;26502;51.886;15.604;2023-02-20T16:24:19;100231.08;;;8.96;70.95
40794;BME280;26502;51.886;15.604;2023-02-20T16:29:31;100222.88;;;8.98;71.04
40794;BME280;26502;51.886;15.604;2023-02-20T16:34:40;100210.17;;;9.07;70.30
40794;BME280;26502;51.886;15.604;2023-02-20T16:39:46;100199.05;;;9.11;69.82
40794;BME280;26502;51.886;15.604;2023-02-20T16:44:53;100180.41;;;9.18;68.69
40794;BME280;26502;51.886;15.604;2023-02-20T16:50:02;100182.92;;;9.22;68.05
40794;BME280;26502;51.886;15.604;2023-02-20T16:55:19;100195.90;;;9.15;68.17
40794;BME280;26502;51.886;15.604;2023-02-20T17:00:27;100203.52;;;9.15;67.87
40794;BME280;26502;51.886;15.604;2023-02-20T17:05:36;100204.92;;;9.16;67.78
40794;BME280;26502;51.886;15.604;2023-02-20T17:10:42;100200.58;;;9.13;67.48
40794;BME280;26502;51.886;15.604;2023-02-20T17:15:49;100194.02;;;9.18;67.23
40794;BME280;26502;51.886;15.604;2023-02-20T17:20:55;100195.00;;;9.21;66.90
40794;BME280;26502;51.886;15.604;2023-02-20T17:26:02;100200.78;;;9.28;66.33
40794;BME280;26502;51.886;15.604;2023-02-20T17:31:08;100190.67;;;9.23;66.36
40794;BME280;26502;51.886;15.604;2023-02-20T17:36:14;100202.81;;;9.21;66.34
40794;BME280;26502;51.886;15.604;2023-02-20T17:41:20;100197.01;;;9.19;66.08
40794;BME280;26502;51.886;15.604;2023-02-20T17:46:27;100193.34;;;9.23;65.85
40794;BME280;26502;51.886;15.604;2023-02-20T17:51:33;100189.59;;;9.19;65.79
40794;BME280;26502;51.886;15.604;2023-02-20T17:56:42;100185.66;;;9.15;66.19
40794;BME280;26502;51.886;15.604;2023-02-20T18:01:50;100182.02;;;9.17;66.01
40794;BME280;26502;51.886;15.604;2023-02-20T18:06:57;100175.96;;;9.13;66.16
40794;BME280;26502;51.886;15.604;2023-02-20T18:12:04;100180.17;;;9.09;66.14
40794;BME280;26502;51.886;15.604;2023-02-20T18:17:11;100190.46;;;9.03;66.66
40794;BME280;26502;51.886;15.604;2023-02-20T18:22:17;100192.63;;;9.02;66.73
40794;BME280;26502;51.886;15.604;2023-02-20T18:27:24;100210.20;;;9.01;67.07
40794;BME280;26502;51.886;15.604;2023-02-20T18:32:31;100209.07;;;9.03;67.15
40794;BME280;26502;51.886;15.604;2023-02-20T18:37:38;100201.77;;;9.04;67.07
40794;BME280;26502;51.886;15.604;2023-02-20T18:42:44;100199.11;;;9.04;67.38
40794;BME280;26502;51.886;15.604;2023-02-20T18:47:52;100200.95;;;9.07;67.55
40794;BME280;26502;51.886;15.604;2023-02-20T18:52:59;100196.41;;;9.10;67.43
40794;BME280;26502;51.886;15.604;2023-02-20T18:58:05;100195.38;;;9.10;67.51
40794;BME280;26502;51.886;15.604;2023-02-20T19:03:12;100179.52;;;9.08;67.89
40794;BME280;26502;51.886;15.604;2023-02-20T19:08:19;100179.33;;;9.07;67.95
40794;BME280;26502;51.886;15.604;2023-02-20T19:13:25;100186.68;;;9.05;68.16
40794;BME280;26502;51.886;15.604;2023-02-20T19:18:31;100176.28;;;9.04;68.36
40794;BME280;26502;51.886;15.604;2023-02-20T19:23:39;100172.65;;;9.01;68.50
40794;BME280;26502;51.886;15.604;2023-02-20T19:28:49;100178.22;;;8.99;68.79
40794;BME280;26502;51.886;15.604;2023-02-20T19:33:55;100181.80;;;8.98;68.81
40794;BME280;26502;51.886;15.604;2023-02-20T19:39:01;100183.67;;;9.00;69.01
40794;BME280;26502;51.886;15.604;2023-02-20T19:44:08;100191.50;;;8.99;69.10
40794;BME280;26502;51.886;15.604;2023-02-20T19:49:19;100192.20;;;8.99;69.32
40794;BME280;26502;51.886;15.604;2023-02-20T19:54:28;100188.31;;;8.99;69.32
40794;BME280;26502;51.886;15.604;2023-02-20T19:59:35;100179.33;;;8.97;69.66
40794;BME280;26502;51.886;15.604;2023-02-20T20:04:43;100184.43;;;8.93;69.68
40794;BME280;26502;51.886;15.604;2023-02-20T20:09:50;100183.02;;;8.93;69.79
40794;BME280;26502;51.886;15.604;2023-02-20T20:14:56;100176.16;;;8.92;70.07
40794;BME280;26502;51.886;15.604;2023-02-20T20:20:04;100181.77;;;8.93;70.11
40794;BME280;26502;51.886;15.604;2023-02-20T20:25:12;100178.82;;;8.97;69.99
40794;BME280;26502;51.886;15.604;2023-02-20T20:30:23;100178.14;;;9.01;70.08
40794;BME280;26502;51.886;15.604;2023-02-20T20:35:31;100175.98;;;9.07;70.04
40794;BME280;26502;51.886;15.604;2023-02-20T20:40:38;100168.65;;;9.04;70.19
40794;BME280;26502;51.886;15.604;2023-02-20T20:45:45;100163.84;;;9.05;70.31
40794;BME280;26502;51.886;15.604;2023-02-20T20:50:51;100158.84;;;9.06;70.40
40794;BME280;26502;51.886;15.604;2023-02-20T20:55:57;100156.28;;;9.03;70.54
40794;BME280;26502;51.886;15.604;2023-02-20T21:01:05;100157.70;;;8.98;70.58
40794;BME280;26502;51.886;15.604;2023-02-20T21:06:11;100163.68;;;8.99;70.83
40794;BME280;26502;51.886;15.604;2023-02-20T21:11:18;100151.30;;;9.04;70.93
40794;BME280;26502;51.886;15.604;2023-02-20T21:16:24;100149.46;;;9.01;70.93
40794;BME280;26502;51.886;15.604;2023-02-20T21:21:31;100155.31;;;9.01;70.89
40794;BME280;26502;51.886;15.604;2023-02-20T21:26:37;100157.54;;;8.98;71.14
40794;BME280;26502;51.886;15.604;2023-02-20T21:31:46;100150.95;;;8.99;71.06
40794;BME280;26502;51.886;15.604;2023-02-20T21:36:54;100145.14;;;8.98;71.17
40794;BME280;26502;51.886;15.604;2023-02-20T21:42:00;100142.77;;;9.00;71.23
40794;BME280;26502;51.886;15.604;2023-02-20T21:47:24;100149.21;;;8.98;71.40
40794;BME280;26502;51.886;15.604;2023-02-20T21:52:32;100145.92;;;9.00;71.36
40794;BME280;26502;51.886;15.604;2023-02-20T21:57:41;100138.98;;;9.01;71.42
40794;BME280;26502;51.886;15.604;2023-02-20T22:02:47;100136.73;;;9.00;71.43
40794;BME280;26502;51.886;15.604;2023-02-20T22:07:52;100125.89;;;9.01;71.53
40794;BME280;26502;51.886;15.604;2023-02-20T22:13:16;100132.88;;;9.04;71.77
40794;BME280;26502;51.886;15.604;2023-02-20T22:18:40;100127.79;;;9.03;71.92
40794;BME280;26502;51.886;15.604;2023-02-20T22:24:06;100135.42;;;9.02;72.02
40794;BME280;26502;51.886;15.604;2023-02-20T22:29:29;100128.48;;;9.03;72.10
40794;BME280;26502;51.886;15.604;2023-02-20T22:34:53;100134.52;;;9.02;72.19
40794;BME280;26502;51.886;15.604;2023-02-20T22:40:17;100140.32;;;9.04;72.33
40794;BME280;26502;51.886;15.604;2023-02-20T22:45:40;100130.59;;;9.03;72.40
40794;BME280;26502;51.886;15.604;2023-02-20T22:51:04;100124.96;;;9.02;72.63
40794;BME280;26502;51.886;15.604;2023-02-20T22:56:30;100128.67;;;8.98;72.55
40794;BME280;26502;51.886;15.604;2023-02-20T23:01:53;100127.72;;;8.94;72.90
40794;BME280;26502;51.886;15.604;2023-02-20T23:07:17;100122.45;;;8.88;73.04
40794;BME280;26502;51.886;15.604;2023-02-20T23:12:41;100123.66;;;8.84;73.34
40794;BME280;26502;51.886;15.604;2023-02-20T23:18:05;100123.23;;;8.80;73.33
40794;BME280;26502;51.886;15.604;2023-02-20T23:23:29;100122.98;;;8.78;73.65
40794;BME280;26502;51.886;15.604;2023-02-20T23:28:53;100123.86;;;8.78;73.84
40794;BME280;26502;51.886;15.604;2023-02-20T23:34:17;100115.17;;;8.78;74.14
40794;BME280;26502;51.886;15.604;2023-02-20T23:39:41;100119.61;;;8.78;74.10
40794;BME280;26502;51.886;15.604;2023-02-20T23:45:08;100112.93;;;8.76;74.29
40794;BME280;26502;51.886;15.604;2023-02-20T23:50:32;100104.77;;;8.77;74.25
40794;BME280;26502;51.886;15.604;2023-02-20T23:55:56;100093.45;;;8.82;74.47
